Terminal Aerodrome Forecast
Issued by NWS Cleveland, OH

Home | Current Version | Previous Version | Graphics & Text | Print | Product List | Glossary On
Versions: 1 2 3 4 5 6 7 8 9 10 11 12 13 14 15 16 17 18 19 20 21 22 23 24 25
530
FTUS41 KCLE 290539
TAFCLE
TAF
KCLE 290539Z 2906/3012 02006KT P6SM -SHRA OVC013
     FM290800 03005KT P6SM OVC015
     FM291500 02008KT P6SM OVC022
     FM300000 36004KT P6SM BKN035=

USA.gov is the U.S. government's official web portal to all federal, state and local government web resources and services.